createdAt,value
2018-03-26T00:00:09.272Z,15.53
2018-03-26T00:02:36.755Z,17.17
2018-03-26T00:05:04.355Z,17.63
2018-03-26T00:07:31.854Z,15.63
2018-03-26T00:09:59.310Z,17.35
2018-03-26T00:12:26.785Z,17.97
2018-03-26T00:14:54.256Z,17.80
2018-03-26T00:17:22.496Z,17.40
2018-03-26T00:19:49.952Z,16.13
2018-03-26T00:22:17.442Z,17.10
2018-03-26T00:24:45.664Z,17.77
2018-03-26T00:27:13.144Z,15.90
2018-03-26T00:29:40.567Z,16.43
2018-03-26T00:32:08.042Z,16.73
2018-03-26T00:34:35.507Z,17.37
2018-03-26T00:37:02.959Z,18.03
2018-03-26T00:39:30.422Z,18.27
2018-03-26T00:41:57.877Z,17.97
2018-03-26T00:44:25.337Z,18.73
2018-03-26T00:46:52.816Z,16.13
2018-03-26T00:49:20.272Z,15.50
2018-03-26T00:51:47.731Z,17.00
2018-03-26T00:54:15.176Z,16.20
2018-03-26T00:56:42.632Z,17.23
2018-03-26T00:59:10.096Z,17.20
2018-03-26T01:01:37.540Z,17.53
2018-03-26T01:04:05.940Z,15.33
2018-03-26T01:06:33.401Z,14.97
2018-03-26T01:09:00.877Z,15.67
2018-03-26T01:11:29.104Z,16.47
2018-03-26T01:13:56.573Z,14.20
2018-03-26T01:16:24.044Z,14.80
2018-03-26T01:18:52.283Z,14.83
2018-03-26T01:21:19.761Z,15.67
2018-03-26T01:23:47.225Z,16.13
2018-03-26T01:26:14.700Z,14.67
2018-03-26T01:28:42.173Z,15.30
2018-03-26T01:31:10.390Z,16.43
2018-03-26T01:33:37.843Z,15.00
2018-03-26T01:36:05.295Z,15.40
2018-03-26T01:38:32.764Z,15.90
2018-03-26T01:41:00.211Z,14.20
2018-03-26T01:43:27.683Z,15.97
2018-03-26T01:45:55.119Z,15.47
2018-03-26T01:48:22.577Z,15.00
2018-03-26T01:50:50.032Z,15.30
2018-03-26T01:53:17.516Z,16.80
2018-03-26T01:55:44.965Z,14.33
2018-03-26T01:58:12.434Z,13.20
2018-03-26T02:00:39.887Z,14.50
2018-03-26T02:03:07.353Z,15.83
2018-03-26T02:05:34.816Z,14.60
2018-03-26T02:08:02.283Z,15.80
2018-03-26T02:10:31.234Z,14.57
2018-03-26T02:12:58.718Z,15.87
2018-03-26T02:15:26.171Z,15.50
2018-03-26T02:17:53.653Z,16.87
2018-03-26T02:20:21.873Z,14.90
2018-03-26T02:22:49.325Z,14.53
2018-03-26T02:25:16.773Z,15.30
2018-03-26T02:27:44.237Z,16.17
2018-03-26T02:30:11.687Z,14.65
2018-03-26T02:32:39.148Z,14.77
2018-03-26T02:35:06.658Z,15.20
2018-03-26T02:37:34.110Z,14.87
2018-03-26T02:40:02.337Z,16.50
2018-03-26T02:42:29.785Z,17.93
2018-03-26T02:44:58.017Z,16.50
2018-03-26T02:47:25.486Z,16.43
2018-03-26T02:49:52.936Z,16.27
2018-03-26T02:52:20.380Z,16.63
2018-03-26T02:54:47.852Z,17.20
2018-03-26T02:57:16.060Z,17.37
2018-03-26T02:59:44.292Z,16.60
2018-03-26T03:02:11.759Z,16.27
2018-03-26T03:04:40.439Z,15.10
2018-03-26T03:07:07.897Z,15.27
2018-03-26T03:09:35.370Z,14.17
2018-03-26T03:12:02.835Z,15.17
2018-03-26T03:14:31.056Z,15.33
2018-03-26T03:16:58.509Z,14.70
2018-03-26T03:19:25.967Z,13.83
2018-03-26T03:21:53.423Z,13.63
2018-03-26T03:24:20.920Z,15.43
2018-03-26T03:26:48.364Z,15.10
2018-03-26T03:29:15.837Z,15.73
2018-03-26T03:31:43.338Z,16.00
2018-03-26T03:34:10.810Z,16.60
2018-03-26T03:36:38.251Z,17.63
2018-03-26T03:39:05.730Z,17.00
2018-03-26T03:41:33.186Z,17.47
2018-03-26T03:44:00.675Z,16.90
2018-03-26T03:46:28.130Z,16.13
2018-03-26T03:48:55.583Z,15.50
2018-03-26T03:51:23.048Z,16.30
2018-03-26T03:53:50.526Z,16.60
2018-03-26T03:56:17.977Z,18.47
2018-03-26T03:58:45.695Z,18.53
2018-03-26T04:01:13.153Z,17.12
2018-03-26T04:03:40.612Z,16.40
2018-03-26T04:06:08.066Z,17.77
2018-03-26T04:08:35.535Z,17.67
2018-03-26T04:11:02.993Z,17.57
2018-03-26T04:13:30.457Z,18.20
2018-03-26T04:15:57.915Z,17.57
2018-03-26T04:18:25.372Z,18.57
2018-03-26T04:20:52.845Z,18.40
2018-03-26T04:23:20.302Z,22.13
2018-03-26T04:25:47.802Z,22.80
2018-03-26T04:28:15.195Z,18.47
2018-03-26T04:30:42.657Z,21.00
2018-03-26T04:33:10.124Z,19.03
2018-03-26T04:35:37.585Z,23.73
2018-03-26T04:38:05.049Z,24.97
2018-03-26T04:40:33.281Z,19.47
2018-03-26T04:43:00.733Z,19.77
2018-03-26T04:45:28.212Z,23.03
2018-03-26T04:47:55.675Z,20.90
2018-03-26T04:50:23.180Z,20.30
2018-03-26T04:52:50.592Z,20.50
2018-03-26T04:55:18.068Z,20.47
2018-03-26T04:57:45.552Z,20.25
2018-03-26T05:00:13.790Z,19.83
2018-03-26T05:02:41.408Z,19.77
2018-03-26T05:05:08.957Z,19.27
2018-03-26T05:07:36.433Z,20.25
2018-03-26T05:10:03.899Z,20.20
2018-03-26T05:12:31.345Z,21.50
2018-03-26T05:14:58.849Z,21.17
2018-03-26T05:17:26.308Z,20.97
2018-03-26T05:19:53.768Z,20.03
2018-03-26T05:22:21.213Z,20.00
2018-03-26T05:24:48.774Z,20.90
2018-03-26T05:27:16.237Z,21.50
2018-03-26T05:29:43.692Z,19.95
2018-03-26T05:32:11.148Z,21.47
2018-03-26T05:34:38.627Z,20.07
2018-03-26T05:37:06.073Z,19.97
2018-03-26T05:39:33.532Z,20.20
2018-03-26T05:42:00.984Z,20.13
2018-03-26T05:44:28.464Z,22.83
2018-03-26T05:46:56.694Z,22.73
2018-03-26T05:49:24.148Z,20.70
2018-03-26T05:51:51.600Z,22.48
2018-03-26T05:54:19.046Z,21.47
2018-03-26T05:56:46.506Z,21.37
2018-03-26T05:59:13.960Z,24.23
2018-03-26T06:01:41.424Z,22.73
2018-03-26T06:04:08.896Z,22.40
2018-03-26T06:06:36.364Z,20.90
2018-03-26T06:09:03.816Z,20.67
2018-03-26T06:11:31.290Z,20.87
2018-03-26T06:13:58.741Z,20.43
2018-03-26T06:16:26.226Z,20.17
2018-03-26T06:18:54.439Z,20.73
2018-03-26T06:21:21.911Z,20.93
2018-03-26T06:23:50.601Z,20.65
2018-03-26T06:26:18.062Z,22.63
2018-03-26T06:28:45.521Z,21.93
2018-03-26T06:31:12.976Z,20.63
2018-03-26T06:33:40.453Z,22.00
2018-03-26T06:36:11.886Z,19.33
2018-03-26T06:38:55.128Z,20.17
2018-03-26T06:41:22.598Z,20.77
2018-03-26T06:43:50.073Z,21.77
2018-03-26T06:46:18.303Z,25.70
2018-03-26T06:48:45.759Z,23.83
2018-03-26T06:51:13.222Z,23.50
2018-03-26T06:53:40.682Z,24.73
2018-03-26T06:56:08.182Z,25.60
2018-03-26T06:58:36.421Z,23.87
2018-03-26T07:01:03.883Z,24.53
2018-03-26T07:03:31.324Z,25.30
2018-03-26T07:05:58.787Z,25.83
2018-03-26T07:08:26.269Z,24.40
2018-03-26T07:10:53.731Z,29.27
2018-03-26T07:13:21.961Z,27.57
2018-03-26T07:15:49.451Z,25.70
2018-03-26T07:18:16.890Z,26.83
2018-03-26T07:20:44.362Z,26.03
2018-03-26T07:23:11.828Z,28.57
2018-03-26T07:25:39.310Z,29.57
2018-03-26T07:28:07.523Z,28.57
2018-03-26T07:30:34.989Z,29.95
2018-03-26T07:33:02.444Z,28.77
2018-03-26T07:35:30.023Z,30.70
2018-03-26T07:37:57.475Z,32.50
2018-03-26T07:40:24.940Z,31.40
2018-03-26T07:42:52.391Z,32.73
2018-03-26T07:45:19.843Z,29.47
2018-03-26T07:47:47.317Z,32.20
2018-03-26T07:50:14.784Z,32.77
2018-03-26T07:52:49.635Z,33.30
2018-03-26T07:55:17.860Z,32.70
2018-03-26T07:57:45.401Z,33.70
2018-03-26T08:00:12.876Z,31.33
2018-03-26T08:02:40.340Z,31.13
2018-03-26T08:05:07.810Z,35.00
2018-03-26T08:07:35.274Z,34.40
2018-03-26T08:10:02.732Z,30.10
2018-03-26T08:12:30.188Z,35.57
2018-03-26T08:14:57.640Z,34.15
2018-03-26T08:17:25.116Z,33.43
2018-03-26T08:19:53.333Z,32.50
2018-03-26T08:22:20.807Z,33.00
2018-03-26T08:24:48.261Z,34.00
2018-03-26T08:27:15.731Z,32.37
2018-03-26T08:29:43.184Z,30.33
2018-03-26T08:32:10.658Z,31.13
2018-03-26T08:34:38.115Z,31.43
2018-03-26T08:37:05.597Z,30.63
2018-03-26T08:39:33.055Z,30.17
2018-03-26T08:42:01.293Z,31.33
2018-03-26T08:44:28.747Z,31.60
2018-03-26T08:46:56.203Z,32.87
2018-03-26T08:49:23.640Z,31.77
2018-03-26T08:51:51.125Z,31.13
2018-03-26T08:54:18.644Z,30.40
2018-03-26T08:56:46.099Z,30.70
2018-03-26T08:59:13.568Z,31.97
2018-03-26T09:01:41.053Z,31.63
2018-03-26T09:04:08.505Z,32.80
2018-03-26T09:06:35.967Z,32.00
2018-03-26T09:09:03.426Z,30.03
2018-03-26T09:11:30.897Z,30.40
2018-03-26T09:13:58.344Z,31.50
2018-03-26T09:16:25.807Z,31.17
2018-03-26T09:18:53.263Z,29.17
2018-03-26T09:21:20.816Z,31.97
2018-03-26T09:23:48.404Z,32.40
2018-03-26T09:26:16.649Z,30.90
2018-03-26T09:28:44.108Z,30.27
2018-03-26T09:31:11.581Z,35.83
2018-03-26T09:33:39.128Z,31.50
2018-03-26T09:36:06.599Z,31.60
2018-03-26T09:38:34.048Z,30.80
2018-03-26T09:41:01.511Z,30.90
2018-03-26T09:43:28.963Z,32.63
2018-03-26T09:45:56.422Z,30.07
2018-03-26T09:48:24.645Z,30.83
2018-03-26T09:50:52.119Z,32.77
2018-03-26T09:53:19.643Z,30.60
2018-03-26T09:55:47.047Z,30.97
2018-03-26T09:58:14.495Z,32.63
2018-03-26T10:00:47.665Z,30.53
2018-03-26T10:03:15.128Z,33.50
2018-03-26T10:05:42.605Z,30.60
2018-03-26T10:08:10.057Z,30.03
2018-03-26T10:10:37.525Z,30.63
2018-03-26T10:13:04.975Z,29.73
2018-03-26T10:15:32.424Z,31.23
2018-03-26T10:17:59.889Z,30.87
2018-03-26T10:20:27.343Z,29.57
2018-03-26T10:22:54.796Z,28.47
2018-03-26T10:25:22.253Z,31.50
2018-03-26T10:27:49.721Z,30.20
2018-03-26T10:30:17.170Z,30.80
2018-03-26T10:32:44.623Z,30.03
2018-03-26T10:35:12.092Z,29.73
2018-03-26T10:37:39.543Z,28.33
2018-03-26T10:40:07.003Z,28.63
2018-03-26T10:42:34.465Z,28.27
2018-03-26T10:45:02.503Z,29.77
2018-03-26T10:47:30.095Z,27.67
2018-03-26T10:49:57.545Z,28.90
2018-03-26T10:52:25.001Z,30.37
2018-03-26T10:54:52.472Z,29.37
2018-03-26T10:57:19.943Z,28.93
2018-03-26T10:59:47.390Z,31.50
2018-03-26T11:02:14.964Z,31.17
2018-03-26T11:04:42.415Z,32.63
2018-03-26T11:07:09.898Z,31.00
2018-03-26T11:09:38.124Z,30.80
2018-03-26T11:12:05.587Z,29.47
2018-03-26T11:14:33.040Z,29.30
2018-03-26T11:17:00.513Z,29.60
2018-03-26T11:19:27.969Z,29.17
2018-03-26T11:21:55.446Z,29.27
2018-03-26T11:24:23.684Z,28.10
2018-03-26T11:26:51.154Z,29.70
2018-03-26T11:29:18.620Z,27.30
2018-03-26T11:31:46.077Z,27.50
2018-03-26T11:34:13.666Z,27.75
2018-03-26T11:36:41.906Z,27.37
2018-03-26T11:39:09.375Z,26.00
2018-03-26T11:41:36.860Z,28.07
2018-03-26T11:44:05.104Z,25.65
2018-03-26T11:46:32.552Z,26.73
2018-03-26T11:49:00.019Z,26.13
2018-03-26T11:51:27.480Z,28.40
2018-03-26T11:53:54.954Z,27.30
2018-03-26T11:56:22.399Z,26.63
2018-03-26T11:58:51.396Z,27.30
2018-03-26T12:01:18.846Z,25.07
2018-03-26T12:03:46.300Z,27.23
2018-03-26T12:06:14.750Z,25.23
2018-03-26T12:08:42.192Z,27.30
2018-03-26T12:11:09.684Z,25.50
2018-03-26T12:13:37.144Z,28.27
2018-03-26T12:16:04.582Z,26.00
2018-03-26T12:18:32.057Z,28.43
2018-03-26T12:21:00.368Z,28.43
2018-03-26T12:23:39.743Z,24.07
2018-03-26T12:26:07.201Z,22.93
2018-03-26T12:28:46.573Z,25.40
2018-03-26T12:31:14.037Z,25.13
2018-03-26T12:33:53.327Z,23.70
2018-03-26T12:36:20.812Z,24.15
2018-03-26T12:38:48.261Z,23.20
2018-03-26T12:41:15.711Z,24.87
2018-03-26T12:43:43.174Z,23.83
2018-03-26T12:46:22.629Z,24.40
2018-03-26T12:48:50.089Z,24.20
2018-03-26T12:51:29.507Z,23.60
2018-03-26T12:53:56.956Z,24.47
2018-03-26T12:56:25.427Z,23.87
2018-03-26T12:58:52.886Z,25.07
2018-03-26T13:01:32.253Z,24.30
2018-03-26T13:03:59.753Z,26.80
2018-03-26T13:06:27.306Z,25.67
2018-03-26T13:08:55.532Z,25.12
2018-03-26T13:11:22.976Z,25.33
2018-03-26T13:13:50.456Z,26.60
2018-03-26T13:16:17.909Z,27.47
2018-03-26T13:18:45.371Z,26.57
2018-03-26T13:21:12.832Z,27.90
2018-03-26T13:23:40.278Z,27.80
2018-03-26T13:26:07.739Z,26.13
2018-03-26T13:28:36.612Z,28.80
2018-03-26T13:31:04.076Z,27.70
2018-03-26T13:33:31.525Z,26.77
2018-03-26T13:35:58.979Z,27.40
2018-03-26T13:38:26.429Z,28.43
2018-03-26T13:40:53.887Z,29.00
2018-03-26T13:43:21.339Z,26.67
2018-03-26T13:45:48.802Z,26.13
2018-03-26T13:48:16.253Z,29.37
2018-03-26T13:50:44.566Z,27.75
2018-03-26T13:53:12.023Z,28.03
2018-03-26T13:55:39.475Z,29.90
2018-03-26T13:58:06.928Z,28.43
2018-03-26T14:00:34.412Z,26.52
2018-03-26T14:03:01.863Z,26.67
2018-03-26T14:05:29.316Z,26.27
2018-03-26T14:07:56.768Z,29.60
2018-03-26T14:10:35.983Z,27.50
2018-03-26T14:13:15.361Z,27.10
2018-03-26T14:15:54.747Z,29.40
2018-03-26T14:18:22.223Z,29.10
2018-03-26T14:20:49.690Z,27.40
2018-03-26T14:23:17.145Z,28.30
2018-03-26T14:25:44.592Z,25.00
2018-03-26T14:28:12.046Z,25.37
2018-03-26T14:30:39.524Z,26.27
2018-03-26T14:33:06.971Z,25.98
2018-03-26T14:35:42.312Z,24.57
2018-03-26T14:38:10.546Z,28.37
2018-03-26T14:40:38.796Z,28.10
2018-03-26T14:43:06.302Z,24.87
2018-03-26T14:45:33.693Z,26.30
2018-03-26T14:48:01.150Z,28.03
2018-03-26T14:50:28.623Z,27.80
2018-03-26T14:52:56.096Z,24.50
2018-03-26T14:55:24.402Z,25.52
2018-03-26T14:57:51.800Z,29.27
2018-03-26T15:00:19.371Z,24.40
2018-03-26T15:02:46.891Z,24.10
2018-03-26T15:05:14.287Z,25.23
2018-03-26T15:07:43.267Z,26.10
2018-03-26T15:10:10.721Z,24.23
2018-03-26T15:12:38.175Z,22.37
2018-03-26T15:15:06.540Z,24.87
2018-03-26T15:17:33.999Z,24.12
2018-03-26T15:20:01.496Z,26.30
2018-03-26T15:22:30.489Z,27.97
2018-03-26T15:24:58.747Z,25.40
2018-03-26T15:27:26.268Z,25.88
2018-03-26T15:29:54.453Z,25.43
2018-03-26T15:32:21.916Z,24.77
2018-03-26T15:34:49.356Z,22.00
2018-03-26T15:37:16.829Z,24.50
2018-03-26T15:39:44.270Z,26.03
2018-03-26T15:42:11.741Z,26.63
2018-03-26T15:44:39.200Z,27.13
2018-03-26T15:47:06.685Z,27.53
2018-03-26T15:49:34.141Z,26.37
2018-03-26T15:52:02.388Z,24.47
2018-03-26T15:54:29.861Z,24.80
2018-03-26T15:56:57.342Z,25.93
2018-03-26T15:59:26.332Z,25.50
2018-03-26T16:01:53.307Z,26.63
2018-03-26T16:04:21.528Z,27.60
2018-03-26T16:06:49.000Z,27.73
2018-03-26T16:09:16.475Z,27.60
2018-03-26T16:11:44.716Z,25.50
2018-03-26T16:14:12.193Z,26.47
2018-03-26T16:16:39.643Z,26.17
2018-03-26T16:19:07.118Z,25.57
2018-03-26T16:21:34.575Z,26.80
2018-03-26T16:24:02.042Z,24.57
2018-03-26T16:26:29.502Z,28.10
2018-03-26T16:28:57.752Z,26.23
2018-03-26T16:31:25.213Z,24.60
2018-03-26T16:33:52.684Z,25.95
2018-03-26T16:36:20.920Z,24.58
2018-03-26T16:38:48.373Z,25.50
2018-03-26T16:41:28.608Z,24.53
2018-03-26T16:43:56.844Z,24.07
2018-03-26T16:46:24.284Z,23.70
2018-03-26T16:48:51.752Z,24.63
2018-03-26T16:51:19.208Z,25.63
2018-03-26T16:53:48.486Z,25.83
2018-03-26T16:56:15.944Z,25.70
2018-03-26T16:58:43.413Z,27.00
2018-03-26T17:01:10.873Z,26.70
2018-03-26T17:03:38.353Z,25.30
2018-03-26T17:06:05.801Z,28.30
2018-03-26T17:08:33.273Z,27.30
2018-03-26T17:11:01.542Z,29.02
2018-03-26T17:13:28.959Z,29.57
2018-03-26T17:15:57.560Z,34.90
2018-03-26T17:18:25.016Z,35.40
2018-03-26T17:20:52.480Z,28.67
2018-03-26T17:23:19.931Z,30.37
2018-03-26T17:25:47.397Z,38.50
2018-03-26T17:28:14.878Z,40.83
2018-03-26T17:30:42.359Z,41.87
2018-03-26T17:33:10.677Z,51.43
2018-03-26T17:35:38.152Z,39.10
2018-03-26T17:38:07.413Z,28.83
2018-03-26T17:40:34.878Z,28.40
2018-03-26T17:43:02.335Z,26.63
2018-03-26T17:45:29.799Z,25.90
2018-03-26T17:47:57.286Z,31.00
2018-03-26T17:50:24.848Z,47.00
2018-03-26T17:52:52.346Z,36.73
2018-03-26T17:55:19.822Z,31.60
2018-03-26T17:57:47.316Z,28.90
2018-03-26T18:00:14.761Z,27.33
2018-03-26T18:02:42.214Z,27.30
2018-03-26T18:05:09.730Z,27.70
2018-03-26T18:07:37.190Z,25.33
2018-03-26T18:10:04.701Z,25.23
2018-03-26T18:12:32.132Z,28.30
2018-03-26T18:14:59.613Z,27.00
2018-03-26T18:17:27.084Z,25.90
2018-03-26T18:19:54.551Z,26.43
2018-03-26T18:22:22.780Z,25.53
2018-03-26T18:24:50.240Z,22.03
2018-03-26T18:27:17.701Z,38.77
2018-03-26T18:29:45.156Z,35.40
2018-03-26T18:32:12.633Z,32.53
2018-03-26T18:34:40.101Z,25.00
2018-03-26T18:37:07.563Z,31.47
2018-03-26T18:39:35.009Z,33.40
2018-03-26T18:42:02.498Z,35.67
2018-03-26T18:44:30.813Z,33.57
2018-03-26T18:46:59.008Z,34.00
2018-03-26T18:49:26.457Z,35.50
2018-03-26T18:54:47.473Z,35.67
2018-03-26T18:57:14.922Z,33.90
2018-03-26T18:59:42.395Z,32.73
2018-03-26T19:02:09.859Z,33.63
2018-03-26T19:04:38.848Z,35.92
2018-03-26T19:07:06.321Z,35.23
2018-03-26T19:09:33.776Z,30.60
2018-03-26T19:12:02.036Z,30.00
2018-03-26T19:14:29.483Z,33.30
2018-03-26T19:16:56.958Z,28.37
2018-03-26T19:19:24.414Z,40.03
2018-03-26T19:21:51.862Z,34.00
2018-03-26T19:24:19.312Z,32.83
2018-03-26T19:26:46.773Z,28.87
2018-03-26T19:29:14.237Z,29.77
2018-03-26T19:31:41.709Z,28.87
2018-03-26T19:34:09.178Z,25.33
2018-03-26T19:36:36.649Z,25.93
2018-03-26T19:39:04.885Z,24.45
2018-03-26T19:41:33.116Z,28.50
2018-03-26T19:44:00.566Z,26.90
2018-03-26T19:46:28.815Z,32.20
2018-03-26T19:48:56.272Z,26.47
2018-03-26T19:51:23.746Z,27.33
2018-03-26T19:53:51.985Z,26.30
2018-03-26T19:56:19.489Z,26.83
2018-03-26T19:58:47.716Z,27.87
2018-03-26T20:01:15.183Z,31.40
2018-03-26T20:03:42.640Z,33.63
2018-03-26T20:06:10.116Z,32.63
2018-03-26T20:08:38.926Z,31.30
2018-03-26T20:11:07.144Z,31.23
2018-03-26T20:13:34.624Z,29.97
2018-03-26T20:16:02.848Z,32.77
2018-03-26T20:18:30.301Z,32.10
2018-03-26T20:20:57.765Z,30.53
2018-03-26T20:23:25.247Z,30.87
2018-03-26T20:25:52.688Z,31.20
2018-03-26T20:28:20.147Z,34.00
2018-03-26T20:30:47.605Z,32.43
2018-03-26T20:33:15.071Z,31.60
2018-03-26T20:35:42.564Z,35.97
2018-03-26T20:38:10.063Z,35.77
2018-03-26T20:40:37.485Z,34.93
2018-03-26T20:43:05.719Z,33.60
2018-03-26T20:45:33.211Z,34.23
2018-03-26T20:48:00.669Z,29.97
2018-03-26T20:50:28.152Z,30.10
2018-03-26T20:52:56.378Z,27.53
2018-03-26T20:55:23.862Z,29.30
2018-03-26T20:57:51.322Z,26.50
2018-03-26T21:00:18.787Z,28.87
2018-03-26T21:02:46.243Z,28.57
2018-03-26T21:05:14.480Z,29.67
2018-03-26T21:07:41.942Z,26.80
2018-03-26T21:10:09.401Z,28.47
2018-03-26T21:12:36.858Z,28.60
2018-03-26T21:15:04.327Z,28.27
2018-03-26T21:17:31.783Z,28.13
2018-03-26T21:19:59.223Z,28.40
2018-03-26T21:22:26.691Z,32.30
2018-03-26T21:24:54.134Z,37.10
2018-03-26T21:27:21.605Z,38.53
2018-03-26T21:29:49.054Z,36.40
2018-03-26T21:34:50.462Z,35.70
2018-03-26T21:37:17.926Z,36.07
2018-03-26T21:39:45.383Z,34.23
2018-03-26T21:42:13.615Z,31.67
2018-03-26T21:44:41.085Z,32.13
2018-03-26T21:47:08.538Z,34.93
2018-03-26T21:49:35.989Z,34.33
2018-03-26T21:52:03.472Z,31.00
2018-03-26T21:54:30.929Z,33.33
2018-03-26T21:56:58.405Z,35.33
2018-03-26T21:59:26.626Z,34.50
2018-03-26T22:01:54.096Z,39.55
2018-03-26T22:04:21.544Z,35.27
2018-03-26T22:06:49.014Z,33.17
2018-03-26T22:09:16.470Z,33.87
2018-03-26T22:11:43.931Z,34.60
2018-03-26T22:14:11.377Z,33.43
2018-03-26T22:16:38.860Z,35.07
2018-03-26T22:19:06.327Z,33.90
2018-03-26T22:21:33.795Z,35.43
2018-03-26T22:24:02.012Z,35.08
2018-03-26T22:26:29.489Z,36.80
2018-03-26T22:28:56.948Z,36.37
2018-03-26T22:31:24.407Z,34.87
2018-03-26T22:33:52.785Z,36.20
2018-03-26T22:36:20.259Z,36.45
2018-03-26T22:38:47.720Z,38.40
2018-03-26T22:41:15.180Z,37.40
2018-03-26T22:43:42.636Z,38.80
2018-03-26T22:46:10.099Z,37.85
2018-03-26T22:48:38.321Z,39.70
2018-03-26T22:51:05.806Z,37.77
2018-03-26T22:53:33.267Z,36.47
2018-03-26T22:56:01.565Z,37.20
2018-03-26T22:58:29.018Z,39.60
2018-03-26T23:00:56.461Z,38.73
2018-03-26T23:03:23.934Z,38.47
2018-03-26T23:05:51.388Z,40.27
2018-03-26T23:08:18.857Z,38.80
2018-03-26T23:10:47.077Z,37.23
2018-03-26T23:13:14.536Z,37.03
2018-03-26T23:15:41.998Z,36.80
2018-03-26T23:18:10.583Z,36.60
2018-03-26T23:20:38.048Z,32.90
2018-03-26T23:23:05.526Z,35.73
2018-03-26T23:25:32.985Z,35.37
2018-03-26T23:28:00.437Z,32.33
2018-03-26T23:30:27.908Z,32.50
2018-03-26T23:32:55.466Z,33.13
2018-03-26T23:35:23.923Z,32.10
2018-03-26T23:37:51.396Z,32.90
2018-03-26T23:40:18.846Z,31.03
2018-03-26T23:42:46.319Z,31.60
2018-03-26T23:45:13.773Z,30.20
2018-03-26T23:47:41.220Z,29.50
2018-03-26T23:50:08.672Z,29.27
2018-03-26T23:52:36.151Z,31.23
2018-03-26T23:55:04.376Z,29.87
2018-03-26T23:57:31.856Z,29.47
2018-03-26T23:59:59.308Z,31.23
